aviador You're here:

KAUS Decoded Metar

AUSTIN in TX, USA
Report Time2017-08-22 21:53:00
UTC Time2017-08-22 22:28:41
Flight Rules vfr VFR
WindVRB at 03 kt
Visibility9999 m
Phenomena:N/A
Clouds:Scattered 070 Hf
Expected CloudBase > 7,600 ft AGL from Temp-Dew spread
CeilingNone
Temp37°C (ISA +23)
Dew Point18°C (33% RH)
Heat Index38.7°C
QNH1015 hPa
Density Alt3,360 ft
Elevation545 ft
Report Wrong Elevation
Raw Report
KAUS 222153Z VRB03KT 10SM SCT070 37/18 A2997 RMK AO2 SLP134
T03670183=

Extra information for KAUS:More info

Metar Taf Metar & Taf Last 4 Metars F.Rules Stats Wind Profile Meteogram Temp Stats Airport Information Weather charts Add Link Nearby VenuesMetar ALERT Operation Metar Decoded Social comments

AIRNAV info for KAUS